createdAt,value
2023-01-23T00:00:21.227Z,12.47
2023-01-23T00:02:50.143Z,13.00
2023-01-23T00:05:19.392Z,13.73
2023-01-23T00:07:48.921Z,13.53
2023-01-23T00:10:18.841Z,13.07
2023-01-23T00:12:49.324Z,14.93
2023-01-23T00:15:18.595Z,13.83
2023-01-23T00:17:48.497Z,13.80
2023-01-23T00:20:17.439Z,14.10
2023-01-23T00:22:46.453Z,14.37
2023-01-23T00:25:15.213Z,14.90
2023-01-23T00:28:24.059Z,14.30
2023-01-23T00:30:52.900Z,14.63
2023-01-23T00:33:21.625Z,14.70
2023-01-23T00:35:50.316Z,14.43
2023-01-23T00:38:19.069Z,15.13
2023-01-23T00:40:48.092Z,14.57
2023-01-23T00:43:16.858Z,14.83
2023-01-23T00:45:47.002Z,14.80
2023-01-23T00:48:15.825Z,14.37
2023-01-23T00:50:45.408Z,14.17
2023-01-23T00:53:14.470Z,14.90
2023-01-23T00:55:43.972Z,14.43
2023-01-23T00:58:59.056Z,13.73
2023-01-23T01:01:31.614Z,14.77
2023-01-23T01:04:02.384Z,14.87
2023-01-23T01:06:31.362Z,15.33
2023-01-23T01:09:01.189Z,14.87
2023-01-23T01:11:30.037Z,15.37
2023-01-23T01:14:01.516Z,14.93
2023-01-23T01:16:32.367Z,15.40
2023-01-23T01:19:01.846Z,15.10
2023-01-23T01:21:31.228Z,15.43
2023-01-23T01:23:59.954Z,15.07
2023-01-23T01:26:29.573Z,15.53
2023-01-23T01:28:58.792Z,16.17
2023-01-23T01:31:28.224Z,13.90
2023-01-23T01:33:58.470Z,14.90
2023-01-23T01:36:27.584Z,15.43
2023-01-23T01:38:56.392Z,15.20
2023-01-23T01:41:27.099Z,16.37
2023-01-23T01:44:00.545Z,16.00
2023-01-23T01:46:32.440Z,15.27
2023-01-23T01:49:10.516Z,15.63
2023-01-23T01:51:47.723Z,14.90
2023-01-23T01:54:25.393Z,15.80
2023-01-23T01:57:02.185Z,16.60
2023-01-23T01:59:41.769Z,15.83
2023-01-23T02:02:15.858Z,15.33
2023-01-23T02:04:52.733Z,15.53
2023-01-23T02:07:29.342Z,16.40
2023-01-23T02:09:58.986Z,15.50
2023-01-23T02:12:28.873Z,15.57
2023-01-23T02:14:57.943Z,16.47
2023-01-23T02:17:27.037Z,15.73
2023-01-23T02:20:09.049Z,17.13
2023-01-23T02:22:50.278Z,16.70
2023-01-23T02:25:30.376Z,15.77
2023-01-23T02:28:01.569Z,15.77
2023-01-23T02:30:32.145Z,16.07
2023-01-23T02:33:11.103Z,17.13
2023-01-23T02:35:40.876Z,15.20
2023-01-23T03:44:59.744Z,15.20
2023-01-23T03:47:32.486Z,16.63
2023-01-23T03:50:01.711Z,16.70
2023-01-23T03:52:38.020Z,15.80
2023-01-23T03:55:08.539Z,14.97
2023-01-23T03:57:38.437Z,14.73
2023-01-23T04:00:27.271Z,14.73
2023-01-23T04:03:29.850Z,15.47
2023-01-23T04:06:00.288Z,14.80
2023-01-23T04:08:29.768Z,15.17
2023-01-23T04:11:05.477Z,15.27
2023-01-23T04:13:34.377Z,16.27
2023-01-23T04:16:06.779Z,16.27
2023-01-23T04:18:36.091Z,14.80
2023-01-23T04:21:10.525Z,15.60
2023-01-23T04:23:50.373Z,14.63
2023-01-23T04:26:21.354Z,14.67
2023-01-23T04:28:52.776Z,14.37
2023-01-23T04:31:23.266Z,14.17
2023-01-23T04:33:52.388Z,15.47
2023-01-23T04:36:23.535Z,14.43
2023-01-23T04:39:17.033Z,14.13
2023-01-23T04:41:50.863Z,14.53
2023-01-23T04:44:39.834Z,15.50
2023-01-23T04:47:28.887Z,13.83
2023-01-23T04:55:01.716Z,13.70
2023-01-23T04:57:29.384Z,15.07
2023-01-23T05:00:19.295Z,13.67
2023-01-23T05:02:49.267Z,15.13
2023-01-23T05:05:21.308Z,14.37
2023-01-23T05:07:53.768Z,14.20
2023-01-23T05:10:24.053Z,14.63
2023-01-23T05:12:53.783Z,14.67
2023-01-23T05:15:24.032Z,15.40
2023-01-23T05:17:53.381Z,15.00
2023-01-23T05:20:42.585Z,14.70
2023-01-23T05:24:10.682Z,15.37
2023-01-23T05:26:41.367Z,16.03
2023-01-23T05:30:28.696Z,16.27
2023-01-23T05:33:13.184Z,15.03
2023-01-23T05:35:52.732Z,15.90
2023-01-23T05:38:21.708Z,14.53
2023-01-23T05:40:50.921Z,15.43
2023-01-23T05:44:22.210Z,15.33
2023-01-23T05:47:53.165Z,16.43
2023-01-23T05:50:24.785Z,15.73
2023-01-23T05:52:56.763Z,16.63
2023-01-23T05:55:26.887Z,16.57
2023-01-23T05:57:57.894Z,16.53
2023-01-23T06:00:28.509Z,16.43
2023-01-23T06:03:17.520Z,15.73
2023-01-23T06:06:03.029Z,15.03
2023-01-23T06:08:31.843Z,16.97
2023-01-23T06:11:01.338Z,17.10
2023-01-23T06:13:30.886Z,17.27
2023-01-23T06:16:01.902Z,17.50
2023-01-23T06:19:01.482Z,19.90
2023-01-23T06:21:32.841Z,20.33
2023-01-23T06:24:02.081Z,19.33
2023-01-23T06:26:31.300Z,18.43
2023-01-23T06:29:00.227Z,18.37
2023-01-23T06:31:32.611Z,16.00
2023-01-23T06:34:03.268Z,18.40
2023-01-23T06:36:38.028Z,17.67
2023-01-23T06:39:06.846Z,17.33
2023-01-23T06:41:41.507Z,15.63
2023-01-23T06:44:12.341Z,16.53
2023-01-23T06:46:43.258Z,18.53
2023-01-23T06:49:12.199Z,17.53
2023-01-23T06:51:40.927Z,15.70
2023-01-23T06:54:12.235Z,16.93
2023-01-23T06:56:41.685Z,15.40
2023-01-23T06:59:12.208Z,16.53
2023-01-23T07:01:43.876Z,18.47
2023-01-23T07:04:25.967Z,19.40
2023-01-23T07:06:54.727Z,18.50
2023-01-23T07:09:23.479Z,18.50
2023-01-23T07:12:01.856Z,16.93
2023-01-23T07:14:33.221Z,17.63
2023-01-23T07:17:03.358Z,18.67
2023-01-23T07:19:33.043Z,19.47
2023-01-23T07:22:02.658Z,17.47
2023-01-23T07:24:32.547Z,17.07
2023-01-23T07:27:01.368Z,17.13
2023-01-23T07:29:30.012Z,17.53
2023-01-23T07:32:02.187Z,16.40
2023-01-23T07:34:30.873Z,16.70
2023-01-23T07:36:59.828Z,47.67
2023-01-23T07:39:28.516Z,27.23
2023-01-23T07:41:57.151Z,18.07
2023-01-23T07:44:30.177Z,17.70
2023-01-23T07:46:58.947Z,16.53
2023-01-23T07:49:29.079Z,18.10
2023-01-23T07:51:57.760Z,18.00
2023-01-23T07:54:26.501Z,16.93
2023-01-23T07:56:55.201Z,17.00
2023-01-23T07:59:23.992Z,17.37
2023-01-23T08:01:52.755Z,17.53
2023-01-23T08:04:21.512Z,16.97
2023-01-23T08:06:51.672Z,18.03
2023-01-23T08:09:20.337Z,20.47
2023-01-23T08:11:49.049Z,17.60
2023-01-23T08:14:17.743Z,18.57
2023-01-23T08:16:49.464Z,17.97
2023-01-23T08:19:18.745Z,17.53
2023-01-23T08:21:47.903Z,17.77
2023-01-23T08:24:18.142Z,17.90
2023-01-23T08:26:47.364Z,19.50
2023-01-23T08:29:16.141Z,19.73
2023-01-23T08:31:44.881Z,20.00
2023-01-23T08:34:13.695Z,19.93
2023-01-23T08:36:43.217Z,19.90
2023-01-23T08:39:11.899Z,20.53
2023-01-23T08:41:41.965Z,19.00
2023-01-23T08:44:10.695Z,21.40
2023-01-23T08:46:39.544Z,21.33
2023-01-23T08:49:09.335Z,20.77
2023-01-23T08:51:39.846Z,22.10
2023-01-23T08:54:08.547Z,22.37
2023-01-23T08:56:37.195Z,23.17
2023-01-23T08:59:07.297Z,23.53
2023-01-23T09:01:36.075Z,20.50
2023-01-23T09:04:04.772Z,20.87
2023-01-23T09:06:33.397Z,21.00
2023-01-23T09:09:02.045Z,20.77
2023-01-23T09:11:30.707Z,21.27
2023-01-23T09:14:00.325Z,21.97
2023-01-23T09:16:30.504Z,21.73
2023-01-23T09:18:59.211Z,22.27
2023-01-23T09:21:27.912Z,22.33
2023-01-23T09:23:58.062Z,21.47
2023-01-23T09:26:26.715Z,21.80
2023-01-23T09:28:56.863Z,21.60
2023-01-23T09:31:25.702Z,22.07
2023-01-23T09:33:55.759Z,22.70
2023-01-23T09:36:41.358Z,21.77
2023-01-23T09:39:10.665Z,19.27
2023-01-23T09:41:42.325Z,20.67
2023-01-23T09:44:20.065Z,20.27
2023-01-23T09:46:57.871Z,18.83
2023-01-23T09:49:37.231Z,19.20
2023-01-23T09:52:15.272Z,19.73
2023-01-23T09:54:47.265Z,19.53
2023-01-23T09:57:20.595Z,19.37
2023-01-23T10:00:00.351Z,19.87
2023-01-23T10:02:30.049Z,20.23
2023-01-23T10:05:03.033Z,20.67
2023-01-23T10:08:00.443Z,20.63
2023-01-23T10:10:59.627Z,20.40
2023-01-23T10:13:55.865Z,20.10
2023-01-23T10:16:58.020Z,20.33
2023-01-23T10:19:49.614Z,20.43
2023-01-23T10:22:36.236Z,19.57
2023-01-23T10:25:17.515Z,20.20
2023-01-23T10:27:49.893Z,18.70
2023-01-23T10:30:27.850Z,18.73
2023-01-23T10:33:05.390Z,19.17
2023-01-23T10:35:47.283Z,19.33
2023-01-23T10:38:28.996Z,19.27
2023-01-23T10:41:21.171Z,18.70
2023-01-23T10:43:54.428Z,19.37
2023-01-23T10:46:31.759Z,18.80
2023-01-23T10:49:03.019Z,19.67
2023-01-23T10:51:36.095Z,18.23
2023-01-23T10:54:17.008Z,19.87
2023-01-23T10:57:00.530Z,19.03
2023-01-23T10:59:35.790Z,19.67
2023-01-23T11:02:27.827Z,19.50
2023-01-23T11:04:57.332Z,19.97
2023-01-23T11:07:28.739Z,19.50
2023-01-23T11:10:02.313Z,19.83
2023-01-23T11:12:33.692Z,20.03
2023-01-23T11:15:25.946Z,20.13
2023-01-23T11:17:57.268Z,18.73
2023-01-23T11:20:31.970Z,19.53
2023-01-23T11:23:14.317Z,18.60
2023-01-23T11:25:46.181Z,19.00
2023-01-23T11:28:30.768Z,19.43
2023-01-23T11:31:15.737Z,18.10
2023-01-23T11:33:55.129Z,20.03
2023-01-23T11:36:46.738Z,18.50
2023-01-23T11:39:38.856Z,18.60
2023-01-23T11:42:12.508Z,18.33
2023-01-23T11:44:46.458Z,18.87
2023-01-23T11:48:07.839Z,19.87
2023-01-23T11:50:54.930Z,18.83
2023-01-23T11:53:43.015Z,19.40
2023-01-23T11:56:43.982Z,19.47
2023-01-23T11:59:57.421Z,17.77
2023-01-23T12:03:30.217Z,18.47
2023-01-23T12:06:23.506Z,17.30
2023-01-23T12:09:03.536Z,16.83
2023-01-23T12:11:45.719Z,18.67
2023-01-23T12:14:27.376Z,18.20
2023-01-23T12:17:13.136Z,17.77
2023-01-23T12:20:04.776Z,18.37
2023-01-23T12:22:51.765Z,18.23
2023-01-23T12:25:32.644Z,18.50
2023-01-23T12:28:18.066Z,17.97
2023-01-23T12:31:12.162Z,18.50
2023-01-23T12:34:11.887Z,17.20
2023-01-23T12:37:29.892Z,16.80
2023-01-23T12:40:12.119Z,17.33
2023-01-23T12:42:51.935Z,18.10
2023-01-23T12:45:24.739Z,18.17
2023-01-23T12:48:08.490Z,18.27
2023-01-23T12:50:48.038Z,18.70
2023-01-23T12:53:20.224Z,18.30
2023-01-23T12:56:00.368Z,19.37
2023-01-23T12:58:36.693Z,18.80
2023-01-23T13:01:24.134Z,18.40
2023-01-23T13:04:07.916Z,19.23
2023-01-23T13:07:03.870Z,19.87
2023-01-23T13:09:51.405Z,18.53
2023-01-23T13:12:24.885Z,18.30
2023-01-23T13:15:12.983Z,18.17
2023-01-23T13:17:50.786Z,19.13
2023-01-23T13:20:49.347Z,18.50
2023-01-23T13:23:25.375Z,20.03
2023-01-23T13:26:32.632Z,19.37
2023-01-23T13:29:04.179Z,19.77
2023-01-23T13:31:41.393Z,20.30
2023-01-23T13:34:41.669Z,20.57
2023-01-23T13:37:52.272Z,21.37
2023-01-23T13:40:24.435Z,21.07
2023-01-23T13:42:53.423Z,20.63
2023-01-23T13:45:33.102Z,19.37
2023-01-23T14:22:43.379Z,22.07
2023-01-23T14:25:19.808Z,21.87
2023-01-23T14:27:56.010Z,23.13
2023-01-23T14:30:34.282Z,23.03
2023-01-23T14:33:13.321Z,22.10
2023-01-23T14:35:44.677Z,22.97
2023-01-23T14:38:26.021Z,23.17
2023-01-23T14:40:59.135Z,23.47
2023-01-23T14:44:21.923Z,22.07
2023-01-23T14:47:04.314Z,23.73
2023-01-23T14:49:41.956Z,24.10
2023-01-23T14:53:30.948Z,23.17
2023-01-23T14:56:05.757Z,22.37
2023-01-23T14:58:35.825Z,23.03
2023-01-23T15:01:05.524Z,23.43
2023-01-23T15:03:40.343Z,23.70
2023-01-23T15:06:21.705Z,23.03
2023-01-23T15:08:52.473Z,23.80
2023-01-23T15:11:33.952Z,23.70
2023-01-23T15:14:05.095Z,23.63
2023-01-23T15:16:38.245Z,23.37
2023-01-23T15:19:25.512Z,22.20
2023-01-23T15:22:09.642Z,22.90
2023-01-23T15:24:40.498Z,24.10
2023-01-23T15:27:28.103Z,22.90
2023-01-23T15:30:40.941Z,24.47
2023-01-23T15:33:41.517Z,23.30
2023-01-23T15:36:30.625Z,23.40
2023-01-23T15:39:04.941Z,24.37
2023-01-23T15:41:45.473Z,23.23
2023-01-23T15:44:28.678Z,25.47
2023-01-23T15:47:01.198Z,24.87
2023-01-23T15:49:31.122Z,24.50
2023-01-23T15:52:02.695Z,24.37
2023-01-23T15:54:38.389Z,24.40
2023-01-23T15:57:09.130Z,24.90
2023-01-23T15:59:39.667Z,24.03
2023-01-23T16:02:29.610Z,26.03
2023-01-23T16:05:05.443Z,25.33
2023-01-23T16:07:41.217Z,24.17
2023-01-23T16:10:21.861Z,25.60
2023-01-23T16:13:18.629Z,27.70
2023-01-23T16:15:48.666Z,24.93
2023-01-23T16:18:18.899Z,24.10
2023-01-23T16:20:48.908Z,25.27
2023-01-23T16:23:22.213Z,23.90
2023-01-23T16:25:53.551Z,24.17
2023-01-23T16:28:26.937Z,24.00
2023-01-23T16:31:01.758Z,24.57
2023-01-23T16:33:30.799Z,23.97
2023-01-23T16:36:04.963Z,22.93
2023-01-23T16:38:35.531Z,23.13
2023-01-23T16:41:06.814Z,24.47
2023-01-23T16:43:35.886Z,23.47
2023-01-23T16:46:05.959Z,26.00
2023-01-23T16:48:36.083Z,24.07
2023-01-23T16:51:12.776Z,24.37
2023-01-23T16:53:50.793Z,23.77
2023-01-23T16:56:29.859Z,25.27
2023-01-23T16:59:00.193Z,24.00
2023-01-23T17:01:31.012Z,24.47
2023-01-23T17:04:04.192Z,24.70
2023-01-23T17:06:33.908Z,23.10
2023-01-23T17:09:04.258Z,22.80
2023-01-23T17:11:43.246Z,24.90
2023-01-23T17:14:18.979Z,23.60
2023-01-23T17:16:53.034Z,24.57
2023-01-23T17:19:31.813Z,24.13
2023-01-23T17:22:04.889Z,24.30
2023-01-23T17:24:33.853Z,23.23
2023-01-23T17:27:04.109Z,23.93
2023-01-23T17:29:33.052Z,23.73
2023-01-23T17:32:01.974Z,23.90
2023-01-23T17:34:48.925Z,23.90
2023-01-23T17:37:22.848Z,23.43
2023-01-23T17:39:51.905Z,23.30
2023-01-23T17:42:22.603Z,23.63
2023-01-23T17:44:51.704Z,22.60
2023-01-23T17:47:20.913Z,23.63
2023-01-23T17:49:54.845Z,22.57
2023-01-23T17:52:25.021Z,22.07
2023-01-23T17:54:54.603Z,23.07
2023-01-23T17:57:24.782Z,24.03
2023-01-23T17:59:55.663Z,23.00
2023-01-23T18:02:29.769Z,23.97
2023-01-23T18:04:59.965Z,24.07
2023-01-23T18:07:28.852Z,23.47
2023-01-23T18:09:57.873Z,29.57
2023-01-23T18:12:41.232Z,22.67
2023-01-23T18:15:18.211Z,22.83
2023-01-23T18:18:22.574Z,22.77
2023-01-23T18:20:54.730Z,22.77
2023-01-23T18:23:25.564Z,21.57
2023-01-23T18:26:11.155Z,22.47
2023-01-23T18:28:53.417Z,24.40
2023-01-23T18:31:40.076Z,24.17
2023-01-23T18:34:30.661Z,26.17
2023-01-23T18:37:15.498Z,27.23
2023-01-23T18:40:12.343Z,24.60
2023-01-23T18:42:56.139Z,24.40
2023-01-23T18:45:28.024Z,25.00
2023-01-23T18:47:58.064Z,25.07
2023-01-23T18:50:29.973Z,24.57
2023-01-23T18:53:17.709Z,29.93
2023-01-23T18:56:14.400Z,26.37
2023-01-23T18:59:11.128Z,27.40
2023-01-23T19:02:23.407Z,24.10
2023-01-23T19:05:32.193Z,23.70
2023-01-23T19:08:37.917Z,23.53
2023-01-23T19:11:37.670Z,21.97
2023-01-23T19:14:22.355Z,23.67
2023-01-23T19:17:16.614Z,22.90
2023-01-23T19:20:00.485Z,22.63
2023-01-23T19:22:49.374Z,24.50
2023-01-23T19:25:20.524Z,23.73
2023-01-23T19:28:16.569Z,21.77
2023-01-23T19:30:51.583Z,24.43
2023-01-23T19:33:35.146Z,28.90
2023-01-23T19:36:11.301Z,22.03
2023-01-23T19:38:40.238Z,22.00
2023-01-23T19:41:25.533Z,22.50
2023-01-23T19:43:57.203Z,22.03
2023-01-23T19:46:31.035Z,22.70
2023-01-23T19:49:04.356Z,22.70
2023-01-23T19:51:36.795Z,21.93
2023-01-23T19:54:09.692Z,22.80
2023-01-23T19:56:46.433Z,22.67
2023-01-23T19:59:15.329Z,22.13
2023-01-23T20:01:48.605Z,23.17
2023-01-23T20:04:24.966Z,21.67
2023-01-23T20:06:54.870Z,21.97
2023-01-23T20:09:24.006Z,22.77
2023-01-23T20:11:53.074Z,23.40
2023-01-23T20:14:23.618Z,22.60
2023-01-23T20:16:52.914Z,25.07
2023-01-23T20:19:23.636Z,23.20
2023-01-23T20:21:52.372Z,22.03
2023-01-23T20:24:21.353Z,24.90
2023-01-23T20:26:50.138Z,23.17
2023-01-23T20:29:18.889Z,22.73
2023-01-23T20:31:47.813Z,23.03
2023-01-23T20:34:16.664Z,23.83
2023-01-23T20:36:46.986Z,23.37
2023-01-23T20:39:16.367Z,22.07
2023-01-23T20:41:48.434Z,22.53
2023-01-23T20:44:17.458Z,22.53
2023-01-23T20:46:46.210Z,22.63
2023-01-23T20:49:15.719Z,23.60
2023-01-23T20:51:46.232Z,22.63
2023-01-23T20:54:15.110Z,22.87
2023-01-23T20:56:45.889Z,22.67
2023-01-23T20:59:19.430Z,22.13
2023-01-23T21:02:05.758Z,22.43
2023-01-23T21:04:36.911Z,22.53
2023-01-23T21:07:07.121Z,23.13
2023-01-23T21:09:35.830Z,22.00
2023-01-23T21:12:04.990Z,23.43
2023-01-23T21:14:33.676Z,22.33
2023-01-23T21:17:02.600Z,24.03
2023-01-23T21:19:31.368Z,23.17
2023-01-23T21:22:00.186Z,21.70
2023-01-23T21:24:34.332Z,23.00
2023-01-23T21:27:03.591Z,23.33
2023-01-23T21:29:33.062Z,22.83
2023-01-23T21:32:02.148Z,23.57
2023-01-23T21:34:32.022Z,23.03
2023-01-23T21:37:00.803Z,24.07
2023-01-23T21:39:31.083Z,23.97
2023-01-23T21:41:59.785Z,24.53
2023-01-23T21:44:28.570Z,24.27
2023-01-23T21:46:57.269Z,25.43
2023-01-23T21:49:26.084Z,23.63
2023-01-23T21:51:54.979Z,25.83
2023-01-23T21:54:23.831Z,23.80
2023-01-23T21:56:53.946Z,24.43
2023-01-23T21:59:22.657Z,23.53
2023-01-23T22:01:50.478Z,24.83
2023-01-23T22:04:22.497Z,24.73
2023-01-23T22:06:55.627Z,24.53
2023-01-23T22:09:26.997Z,25.77
2023-01-23T22:11:57.383Z,24.97
2023-01-23T22:14:26.090Z,23.10
2023-01-23T22:16:54.859Z,23.37
2023-01-23T22:19:25.835Z,23.83
2023-01-23T22:21:55.907Z,24.10
2023-01-23T22:24:25.053Z,23.07
2023-01-23T22:26:53.810Z,25.23
2023-01-23T22:29:24.152Z,24.27
2023-01-23T22:31:53.222Z,24.07
2023-01-23T22:34:22.151Z,24.90
2023-01-23T22:36:50.932Z,25.13
2023-01-23T22:39:20.151Z,24.20
2023-01-23T22:41:50.251Z,25.23
2023-01-23T22:44:19.313Z,25.17
2023-01-23T22:46:52.126Z,25.70
2023-01-23T22:49:20.861Z,25.03
2023-01-23T22:51:51.558Z,25.27
2023-01-23T22:54:20.589Z,25.73
2023-01-23T22:56:49.268Z,26.17
2023-01-23T22:59:18.061Z,25.87
2023-01-23T23:01:48.227Z,24.87
2023-01-23T23:04:17.013Z,26.60
2023-01-23T23:06:45.752Z,26.03
2023-01-23T23:09:14.537Z,25.83
2023-01-23T23:11:44.140Z,24.70
2023-01-23T23:14:12.841Z,25.83
2023-01-23T23:16:42.101Z,24.43
2023-01-23T23:19:12.411Z,24.73
2023-01-23T23:21:41.554Z,25.73
2023-01-23T23:24:14.214Z,25.63
2023-01-23T23:26:43.102Z,26.60
2023-01-23T23:29:11.838Z,24.63
2023-01-23T23:31:40.708Z,25.70
2023-01-23T23:34:09.847Z,24.40
2023-01-23T23:36:39.940Z,26.07
2023-01-23T23:39:08.711Z,24.80
2023-01-23T23:41:37.595Z,23.73
2023-01-23T23:44:06.631Z,24.87
2023-01-23T23:46:35.306Z,23.30
2023-01-23T23:49:04.077Z,24.60
2023-01-23T23:51:32.852Z,23.83
2023-01-23T23:54:03.074Z,23.33
2023-01-23T23:56:32.389Z,23.67
2023-01-23T23:59:01.121Z,25.10
